Time;durP1;ratioP1;P1;durP2;ratioP2;P2;SDS_P1;SDS_P2;PMS_P1;PMS_P2;Temp;Humidity;BMP_temperature;BMP_pressure;BME280_temperature;BME280_humidity;BME280_pressure;Samples;Min_cycle;Max_cycle;Signal;HPM_P1;HPM_P2
2022/08/28 00:02:06;;;;;;;11.35;2.92;;;;;;;;;;4972474;28;20102;-62
2022/08/28 00:04:32;;;;;;;15.05;3.50;;;;;;;;;;4977021;28;20442;-62
2022/08/28 00:06:57;;;;;;;9.45;3.28;;;;;;;;;;4992570;28;20116;-62
2022/08/28 00:09:23;;;;;;;6.82;3.10;;;;;;;;;;4992231;28;21010;-63
2022/08/28 00:11:49;;;;;;;10.73;3.47;;;;;;;;;;4993124;28;20081;-61
2022/08/28 00:14:17;;;;;;;9.15;3.00;;;;;;;;;;4992125;28;20442;-63
2022/08/28 00:16:43;;;;;;;8.05;2.88;;;;;;;;;;4993381;28;20109;-63
2022/08/28 00:19:09;;;;;;;10.20;3.50;;;;;;;;;;4991044;28;20137;-63
2022/08/28 00:21:36;;;;;;;10.07;3.30;;;;;;;;;;4994382;28;20089;-62
2022/08/28 00:24:01;;;;;;;9.20;3.55;;;;;;;;;;4992213;28;20046;-65
2022/08/28 00:29:11;;;;;;;9.23;3.40;;;;;;;;;;4991397;28;20049;-63
2022/08/28 00:31:38;;;;;;;8.13;3.70;;;;;;;;;;4991576;28;20386;-62
2022/08/28 00:34:04;;;;;;;8.15;3.50;;;;;;;;;;4990503;28;20433;-62
2022/08/28 00:36:30;;;;;;;11.32;4.10;;;;;;;;;;4991349;28;20089;-62
2022/08/28 00:38:58;;;;;;;8.82;3.58;;;;;;;;;;4991217;28;20102;-62
2022/08/28 00:41:25;;;;;;;10.35;3.42;;;;;;;;;;4991263;28;20117;-62
2022/08/28 00:44:06;;;;;;;13.30;3.83;;;;;;;;;;4992367;28;21803;-63
2022/08/28 00:46:31;;;;;;;12.88;3.80;;;;;;;;;;4990923;28;20422;-63
2022/08/28 00:48:57;;;;;;;12.25;4.03;;;;;;;;;;4992370;28;20038;-62
2022/08/28 00:54:07;;;;;;;10.68;3.42;;;;;;;;;;4992721;28;20088;-63
2022/08/28 00:56:33;;;;;;;10.35;3.50;;;;;;;;;;4992124;28;20038;-61
2022/08/28 00:59:06;;;;;;;10.77;3.83;;;;;;;;;;4991694;28;20050;-63
2022/08/28 01:01:31;;;;;;;15.30;4.05;;;;;;;;;;4989170;28;20034;-62
2022/08/28 01:03:56;;;;;;;12.45;4.07;;;;;;;;;;4991462;28;20044;-62
2022/08/28 01:06:22;;;;;;;8.63;3.42;;;;;;;;;;4985776;28;20030;-62
2022/08/28 01:08:48;;;;;;;12.18;3.47;;;;;;;;;;4985664;28;20117;-62
2022/08/28 01:11:16;;;;;;;13.60;3.65;;;;;;;;;;4991672;28;20049;-62
2022/08/28 01:13:45;;;;;;;10.77;3.60;;;;;;;;;;4991602;28;20038;-62
2022/08/28 01:16:13;;;;;;;11.45;3.60;;;;;;;;;;4990666;28;20458;-63
2022/08/28 01:18:40;;;;;;;15.70;3.70;;;;;;;;;;4991636;28;20044;-62
2022/08/28 01:21:22;;;;;;;11.75;3.67;;;;;;;;;;4990478;28;20041;-63
2022/08/28 01:23:58;;;;;;;10.48;3.75;;;;;;;;;;4990155;28;20125;-62
2022/08/28 01:26:26;;;;;;;11.18;3.63;;;;;;;;;;4987260;28;20050;-62
2022/08/28 01:28:52;;;;;;;8.60;3.78;;;;;;;;;;4988104;28;20114;-64
2022/08/28 01:31:18;;;;;;;12.57;3.65;;;;;;;;;;4989323;28;20117;-63
2022/08/28 01:33:46;;;;;;;11.20;3.60;;;;;;;;;;4991290;28;20031;-62
2022/08/28 01:36:13;;;;;;;11.73;3.72;;;;;;;;;;4987473;28;20109;-62
2022/08/28 01:38:39;;;;;;;9.95;3.55;;;;;;;;;;4986187;28;20033;-62
2022/08/28 01:41:05;;;;;;;13.55;4.00;;;;;;;;;;4983973;28;20058;-63
2022/08/28 01:43:31;;;;;;;12.68;3.65;;;;;;;;;;4985862;28;20068;-62
2022/08/28 01:46:00;;;;;;;10.85;3.65;;;;;;;;;;4991306;28;20034;-61
2022/08/28 01:48:27;;;;;;;12.88;3.63;;;;;;;;;;4988634;28;20038;-62
2022/08/28 01:50:54;;;;;;;11.57;3.55;;;;;;;;;;4990950;28;20026;-62
2022/08/28 01:53:22;;;;;;;14.80;4.03;;;;;;;;;;4990964;28;20034;-62
2022/08/28 01:55:49;;;;;;;12.38;3.60;;;;;;;;;;4989743;28;20045;-62
2022/08/28 01:58:15;;;;;;;13.55;3.90;;;;;;;;;;4990531;28;20047;-62
2022/08/28 02:00:41;;;;;;;10.63;4.00;;;;;;;;;;4989573;28;20057;-62
2022/08/28 02:03:08;;;;;;;9.43;3.67;;;;;;;;;;4990334;28;20046;-63
2022/08/28 02:05:34;;;;;;;10.10;3.83;;;;;;;;;;4990097;28;20042;-63
2022/08/28 02:08:01;;;;;;;11.05;3.67;;;;;;;;;;4991590;28;20038;-63
2022/08/28 02:10:28;;;;;;;11.95;3.97;;;;;;;;;;4990323;28;20646;-63
2022/08/28 02:12:54;;;;;;;9.13;3.72;;;;;;;;;;4991270;28;20387;-62
2022/08/28 02:15:22;;;;;;;12.95;3.80;;;;;;;;;;4990106;28;20030;-62
2022/08/28 02:17:48;;;;;;;9.45;3.88;;;;;;;;;;4989564;28;20052;-62
2022/08/28 02:20:14;;;;;;;11.35;4.18;;;;;;;;;;4990934;28;20041;-62
2022/08/28 02:22:39;;;;;;;7.95;3.95;;;;;;;;;;4989036;28;20031;-62
2022/08/28 02:25:07;;;;;;;10.77;3.80;;;;;;;;;;4991170;28;20091;-63
2022/08/28 02:27:32;;;;;;;11.18;3.75;;;;;;;;;;4990202;28;20069;-62
2022/08/28 02:29:58;;;;;;;9.02;3.78;;;;;;;;;;4988558;28;20062;-62
2022/08/28 02:32:24;;;;;;;11.50;3.53;;;;;;;;;;4989118;28;20208;-62
2022/08/28 02:34:50;;;;;;;9.57;4.07;;;;;;;;;;4989036;28;20065;-62
2022/08/28 02:37:16;;;;;;;16.58;4.15;;;;;;;;;;4988539;28;20456;-63
2022/08/28 02:39:41;;;;;;;9.05;3.72;;;;;;;;;;4989466;28;20501;-62
2022/08/28 02:42:07;;;;;;;11.68;4.13;;;;;;;;;;4993964;28;20069;-65
2022/08/28 02:44:32;;;;;;;13.30;4.03;;;;;;;;;;4993463;28;20035;-62
2022/08/28 02:46:59;;;;;;;14.80;4.00;;;;;;;;;;4993806;28;20407;-62
2022/08/28 02:49:24;;;;;;;10.23;4.18;;;;;;;;;;4986666;28;20057;-62
2022/08/28 02:51:50;;;;;;;11.35;3.90;;;;;;;;;;4991472;28;20101;-62
2022/08/28 02:54:16;;;;;;;16.65;4.22;;;;;;;;;;4988606;28;20526;-63
2022/08/28 02:56:41;;;;;;;13.43;4.40;;;;;;;;;;4991325;28;20493;-62
2022/08/28 02:59:07;;;;;;;9.43;3.47;;;;;;;;;;4988396;28;20042;-63
2022/08/28 03:01:33;;;;;;;8.48;3.40;;;;;;;;;;4989790;28;20034;-62
2022/08/28 03:04:01;;;;;;;11.52;3.80;;;;;;;;;;4989283;28;20053;-62
2022/08/28 03:06:28;;;;;;;8.95;3.33;;;;;;;;;;4985920;28;20531;-62
2022/08/28 03:08:54;;;;;;;10.02;4.13;;;;;;;;;;4989000;28;20416;-62
2022/08/28 03:11:19;;;;;;;11.50;4.18;;;;;;;;;;4990857;28;20041;-62
2022/08/28 03:13:45;;;;;;;11.73;4.10;;;;;;;;;;4994990;28;20476;-62
2022/08/28 03:16:11;;;;;;;10.85;3.88;;;;;;;;;;4991347;28;20042;-62
2022/08/28 03:18:37;;;;;;;10.43;4.00;;;;;;;;;;4995928;28;20038;-62
2022/08/28 03:21:03;;;;;;;13.98;4.10;;;;;;;;;;4992128;28;20070;-62
2022/08/28 03:23:29;;;;;;;9.93;3.92;;;;;;;;;;4993188;28;20038;-62
2022/08/28 03:25:59;;;;;;;10.23;3.80;;;;;;;;;;4989069;28;20042;-62
2022/08/28 03:28:28;;;;;;;9.25;3.70;;;;;;;;;;4986409;28;20118;-63
2022/08/28 03:30:53;;;;;;;10.20;4.32;;;;;;;;;;4991051;28;20045;-63
2022/08/28 03:33:19;;;;;;;9.43;4.03;;;;;;;;;;4990992;28;20034;-62
2022/08/28 03:35:45;;;;;;;13.07;4.10;;;;;;;;;;4993213;28;20034;-61
2022/08/28 03:38:11;;;;;;;12.25;4.05;;;;;;;;;;4989546;28;20046;-64
2022/08/28 03:40:41;;;;;;;11.18;4.07;;;;;;;;;;4993907;28;20035;-63
2022/08/28 03:43:10;;;;;;;12.55;4.00;;;;;;;;;;4992412;28;20535;-63
2022/08/28 03:45:36;;;;;;;16.52;4.72;;;;;;;;;;4992639;28;20039;-62
2022/08/28 03:48:02;;;;;;;10.10;4.05;;;;;;;;;;4992419;28;20038;-62
2022/08/28 03:50:28;;;;;;;12.68;4.32;;;;;;;;;;4993800;28;20298;-63
2022/08/28 03:52:53;;;;;;;7.88;4.07;;;;;;;;;;4992700;28;20034;-61
2022/08/28 03:55:19;;;;;;;10.48;3.95;;;;;;;;;;4994026;28;20034;-61
2022/08/28 03:57:44;;;;;;;9.93;4.20;;;;;;;;;;4989971;28;20047;-62
2022/08/28 04:00:12;;;;;;;13.95;4.05;;;;;;;;;;4993409;28;20460;-62
2022/08/28 04:02:39;;;;;;;10.60;4.18;;;;;;;;;;4992624;28;20085;-63
2022/08/28 04:05:05;;;;;;;10.57;3.90;;;;;;;;;;4992823;28;20434;-63
2022/08/28 04:07:30;;;;;;;11.75;3.97;;;;;;;;;;4992517;28;20133;-62
2022/08/28 04:09:55;;;;;;;9.15;4.18;;;;;;;;;;4993939;28;20041;-63
2022/08/28 04:12:21;;;;;;;9.93;3.78;;;;;;;;;;4994084;28;20034;-62
2022/08/28 04:14:46;;;;;;;11.43;4.07;;;;;;;;;;4992734;28;20030;-62
2022/08/28 04:17:12;;;;;;;14.80;4.03;;;;;;;;;;4993166;28;20117;-64
2022/08/28 04:19:37;;;;;;;15.80;4.20;;;;;;;;;;4993700;28;20385;-62
2022/08/28 04:22:03;;;;;;;12.98;4.53;;;;;;;;;;4990354;28;20169;-62
2022/08/28 04:24:31;;;;;;;12.30;4.20;;;;;;;;;;4993915;28;20057;-62
2022/08/28 04:26:57;;;;;;;11.10;4.30;;;;;;;;;;4993062;28;20040;-62
2022/08/28 04:29:22;;;;;;;13.05;4.30;;;;;;;;;;4991262;28;20394;-63
2022/08/28 04:31:48;;;;;;;12.05;4.50;;;;;;;;;;4991398;28;20459;-61
2022/08/28 04:34:13;;;;;;;10.48;4.10;;;;;;;;;;4990411;28;20030;-63
2022/08/28 04:36:39;;;;;;;11.88;4.78;;;;;;;;;;4992215;28;20022;-62
2022/08/28 04:39:07;;;;;;;11.25;4.22;;;;;;;;;;4992246;28;20039;-61
2022/08/28 04:41:35;;;;;;;15.38;4.68;;;;;;;;;;4992887;28;20959;-62
2022/08/28 04:44:01;;;;;;;11.65;4.20;;;;;;;;;;4988547;28;20042;-62
2022/08/28 04:46:27;;;;;;;8.52;3.80;;;;;;;;;;4991985;28;20045;-62
2022/08/28 04:48:52;;;;;;;11.52;4.18;;;;;;;;;;4991371;28;20026;-61
2022/08/28 04:51:19;;;;;;;12.52;3.97;;;;;;;;;;4992391;28;20391;-63
2022/08/28 04:53:44;;;;;;;13.90;4.63;;;;;;;;;;4992585;28;20364;-62
2022/08/28 04:56:12;;;;;;;13.13;4.60;;;;;;;;;;4992320;28;20501;-62
2022/08/28 04:58:39;;;;;;;11.80;4.32;;;;;;;;;;4991332;28;20176;-62
2022/08/28 05:01:08;;;;;;;12.25;4.38;;;;;;;;;;4991832;28;20463;-62
2022/08/28 05:03:38;;;;;;;10.73;3.88;;;;;;;;;;4989444;28;20062;-63
2022/08/28 05:06:04;;;;;;;11.32;3.92;;;;;;;;;;4989597;28;20042;-62
2022/08/28 05:08:30;;;;;;;10.07;4.07;;;;;;;;;;4988234;28;20050;-62
2022/08/28 05:10:56;;;;;;;11.95;4.20;;;;;;;;;;4990108;28;20380;-62
2022/08/28 05:13:23;;;;;;;10.63;4.38;;;;;;;;;;4990920;28;20118;-62
2022/08/28 05:15:50;;;;;;;8.20;4.10;;;;;;;;;;4991192;28;20489;-62
2022/08/28 05:18:17;;;;;;;11.52;4.18;;;;;;;;;;4992271;28;20051;-64
2022/08/28 05:20:45;;;;;;;11.18;4.10;;;;;;;;;;4991588;28;20466;-62
2022/08/28 05:23:12;;;;;;;13.55;4.70;;;;;;;;;;4992647;28;20108;-62
2022/08/28 05:25:43;;;;;;;14.02;4.43;;;;;;;;;;4990364;28;20042;-62
2022/08/28 05:28:10;;;;;;;14.13;4.38;;;;;;;;;;4991285;28;20070;-62
2022/08/28 05:30:38;;;;;;;12.38;4.35;;;;;;;;;;4986481;28;20045;-61
2022/08/28 05:33:04;;;;;;;10.75;4.00;;;;;;;;;;4992508;28;20092;-61
2022/08/28 05:35:32;;;;;;;12.32;4.35;;;;;;;;;;4989132;28;20026;-62
2022/08/28 05:37:57;;;;;;;10.93;4.93;;;;;;;;;;4992299;28;20112;-62
2022/08/28 05:40:23;;;;;;;10.70;4.30;;;;;;;;;;4989682;28;20070;-62
2022/08/28 05:42:49;;;;;;;12.88;3.85;;;;;;;;;;4982659;28;20482;-61
2022/08/28 05:45:14;;;;;;;10.07;3.90;;;;;;;;;;4985624;28;20026;-64
2022/08/28 05:47:40;;;;;;;10.35;3.80;;;;;;;;;;4989096;28;20041;-63
2022/08/28 05:50:07;;;;;;;8.57;3.45;;;;;;;;;;4990605;28;20045;-64
2022/08/28 05:52:34;;;;;;;9.82;3.80;;;;;;;;;;4990937;28;20467;-63
2022/08/28 05:54:59;;;;;;;13.13;3.78;;;;;;;;;;4991660;28;20115;-63
2022/08/28 05:57:25;;;;;;;9.45;3.63;;;;;;;;;;4976408;28;20034;-62
2022/08/28 05:59:50;;;;;;;6.70;3.55;;;;;;;;;;4990744;28;20109;-63
2022/08/28 06:02:16;;;;;;;12.55;3.78;;;;;;;;;;4984182;28;20117;-63
2022/08/28 06:04:41;;;;;;;12.75;3.53;;;;;;;;;;4988653;28;20046;-62
2022/08/28 06:07:09;;;;;;;11.82;3.78;;;;;;;;;;4989078;28;20053;-61
2022/08/28 06:09:37;;;;;;;8.45;3.13;;;;;;;;;;4986396;28;20503;-62
2022/08/28 06:12:03;;;;;;;12.98;3.58;;;;;;;;;;4990418;28;20471;-63
2022/08/28 06:14:30;;;;;;;7.32;3.38;;;;;;;;;;4990262;28;20030;-63
2022/08/28 06:16:56;;;;;;;10.32;3.15;;;;;;;;;;4991668;28;20041;-62
2022/08/28 06:19:24;;;;;;;12.40;3.42;;;;;;;;;;4990638;28;20368;-62
2022/08/28 06:21:54;;;;;;;10.73;3.28;;;;;;;;;;4991185;28;20061;-62
2022/08/28 06:24:19;;;;;;;12.80;3.42;;;;;;;;;;4992007;28;20034;-63
2022/08/28 06:26:45;;;;;;;10.75;3.15;;;;;;;;;;4990985;28;20441;-62
2022/08/28 06:29:12;;;;;;;8.32;3.38;;;;;;;;;;4992551;28;20034;-62
2022/08/28 06:31:38;;;;;;;12.57;3.30;;;;;;;;;;4990708;28;20045;-62
2022/08/28 06:34:05;;;;;;;13.05;3.10;;;;;;;;;;4991025;28;20038;-63
2022/08/28 06:36:33;;;;;;;11.23;3.30;;;;;;;;;;4990444;28;20031;-63
2022/08/28 06:39:00;;;;;;;9.75;3.10;;;;;;;;;;4990401;28;20086;-63
2022/08/28 06:41:26;;;;;;;11.48;3.28;;;;;;;;;;4989574;28;20022;-63
2022/08/28 06:43:53;;;;;;;8.43;2.78;;;;;;;;;;4992373;28;20062;-62
2022/08/28 06:46:18;;;;;;;11.00;2.78;;;;;;;;;;4990016;28;20085;-62
2022/08/28 06:48:43;;;;;;;9.85;2.38;;;;;;;;;;4988747;28;20667;-62
2022/08/28 06:51:11;;;;;;;10.77;2.50;;;;;;;;;;4991600;28;20039;-62
2022/08/28 06:53:38;;;;;;;12.07;2.78;;;;;;;;;;4990332;28;20030;-61
2022/08/28 06:56:07;;;;;;;7.00;2.53;;;;;;;;;;4989308;28;20041;-61
2022/08/28 06:58:36;;;;;;;12.15;2.95;;;;;;;;;;4990286;28;20038;-62
2022/08/28 07:01:09;;;;;;;8.50;2.72;;;;;;;;;;4991090;28;20093;-63
2022/08/28 07:03:35;;;;;;;10.38;3.13;;;;;;;;;;4989273;28;20038;-62
2022/08/28 07:06:03;;;;;;;9.80;2.53;;;;;;;;;;4990294;28;20030;-61
2022/08/28 07:08:29;;;;;;;12.10;2.60;;;;;;;;;;4989867;28;20081;-62
2022/08/28 07:10:55;;;;;;;8.35;2.85;;;;;;;;;;4989018;28;20037;-62
2022/08/28 07:13:21;;;;;;;8.80;2.30;;;;;;;;;;4985796;28;20042;-62
2022/08/28 07:15:47;;;;;;;8.82;2.60;;;;;;;;;;4977417;28;20110;-62
2022/08/28 07:18:13;;;;;;;7.65;2.60;;;;;;;;;;4978285;28;20364;-62
2022/08/28 07:20:39;;;;;;;12.60;2.53;;;;;;;;;;4978267;28;20034;-63
2022/08/28 07:23:04;;;;;;;10.13;2.60;;;;;;;;;;4992256;28;20030;-62
2022/08/28 07:25:30;;;;;;;8.82;2.90;;;;;;;;;;4989190;28;20030;-63
2022/08/28 07:27:56;;;;;;;10.93;2.70;;;;;;;;;;4991908;28;20467;-61
2022/08/28 07:30:21;;;;;;;8.70;2.30;;;;;;;;;;4969686;28;20128;-62
2022/08/28 07:32:48;;;;;;;10.55;2.50;;;;;;;;;;4988457;28;20030;-63
2022/08/28 07:35:16;;;;;;;9.43;2.40;;;;;;;;;;4990221;28;20057;-61
2022/08/28 07:37:41;;;;;;;8.60;2.13;;;;;;;;;;4987612;28;20030;-62
2022/08/28 07:40:08;;;;;;;11.05;3.00;;;;;;;;;;4990524;28;20042;-62
2022/08/28 07:45:18;;;;;;;12.75;2.50;;;;;;;;;;4990527;28;20161;-63
2022/08/28 07:47:43;;;;;;;9.13;2.63;;;;;;;;;;4989384;28;20556;-62
2022/08/28 07:50:08;;;;;;;10.60;2.60;;;;;;;;;;4991780;28;20033;-62
2022/08/28 07:52:34;;;;;;;9.82;2.40;;;;;;;;;;4990060;28;20523;-62
2022/08/28 07:55:00;;;;;;;6.88;2.60;;;;;;;;;;4986221;28;20063;-62
2022/08/28 07:57:25;;;;;;;9.85;2.58;;;;;;;;;;4990761;28;20554;-64
2022/08/28 07:59:51;;;;;;;10.02;2.60;;;;;;;;;;4992856;28;20048;-62
2022/08/28 08:02:17;;;;;;;10.27;2.70;;;;;;;;;;4993097;28;20026;-62
2022/08/28 08:04:43;;;;;;;7.70;2.72;;;;;;;;;;4990789;28;20034;-63
2022/08/28 08:07:11;;;;;;;8.65;2.60;;;;;;;;;;4994658;28;20029;-63
2022/08/28 08:09:39;;;;;;;10.07;2.50;;;;;;;;;;4993001;28;20037;-62
2022/08/28 08:12:05;;;;;;;6.50;2.15;;;;;;;;;;4993541;28;20041;-61
2022/08/28 08:14:31;;;;;;;5.80;2.33;;;;;;;;;;4990392;28;20027;-63
2022/08/28 08:17:00;;;;;;;9.65;2.58;;;;;;;;;;4993675;28;20092;-62
2022/08/28 08:19:26;;;;;;;8.15;2.50;;;;;;;;;;4992828;28;20066;-64
2022/08/28 08:21:52;;;;;;;6.72;2.58;;;;;;;;;;4992161;28;20101;-62
2022/08/28 08:24:19;;;;;;;8.75;2.20;;;;;;;;;;4993611;28;20030;-63
2022/08/28 08:26:49;;;;;;;6.93;2.45;;;;;;;;;;4991818;28;20555;-63
2022/08/28 08:29:15;;;;;;;6.55;2.15;;;;;;;;;;4990633;28;20064;-62
2022/08/28 08:31:40;;;;;;;7.75;2.25;;;;;;;;;;4987542;28;20054;-62
2022/08/28 08:34:06;;;;;;;6.35;2.13;;;;;;;;;;4991976;28;20096;-60
2022/08/28 08:36:36;;;;;;;8.27;2.40;;;;;;;;;;4993064;28;20038;-61
2022/08/28 08:39:01;;;;;;;8.98;2.63;;;;;;;;;;4994437;28;20117;-61
2022/08/28 08:41:27;;;;;;;8.60;2.60;;;;;;;;;;4992410;28;20137;-63
2022/08/28 08:44:30;;;;;;;7.60;2.30;;;;;;;;;;4991774;28;20034;-61
2022/08/28 08:47:08;;;;;;;7.05;2.28;;;;;;;;;;4972327;28;20047;-61
2022/08/28 08:49:41;;;;;;;8.32;2.70;;;;;;;;;;4992323;28;20609;-60
2022/08/28 08:52:35;;;;;;;9.98;2.45;;;;;;;;;;4993525;28;20034;-60
2022/08/28 08:55:06;;;;;;;6.70;2.10;;;;;;;;;;4987255;28;20172;-61
2022/08/28 08:57:35;;;;;;;7.88;2.60;;;;;;;;;;4991044;28;20120;-63
2022/08/28 09:00:11;;;;;;;10.68;2.80;;;;;;;;;;5005480;28;20456;-61
2022/08/28 09:02:44;;;;;;;7.30;2.22;;;;;;;;;;4990973;28;20034;-61
2022/08/28 09:05:15;;;;;;;8.25;2.05;;;;;;;;;;4977680;28;20038;-62
2022/08/28 09:07:50;;;;;;;8.73;2.15;;;;;;;;;;4991817;28;20162;-61
2022/08/28 09:10:16;;;;;;;11.30;2.50;;;;;;;;;;4993223;28;20030;-61
2022/08/28 09:12:51;;;;;;;8.30;2.35;;;;;;;;;;4991782;28;20041;-61
2022/08/28 09:15:27;;;;;;;5.43;2.28;;;;;;;;;;4991929;28;20034;-60
2022/08/28 09:17:56;;;;;;;8.23;2.83;;;;;;;;;;4992195;28;20049;-60
2022/08/28 09:20:27;;;;;;;13.68;2.50;;;;;;;;;;4991704;28;20070;-61
2022/08/28 09:22:54;;;;;;;8.18;2.28;;;;;;;;;;4991232;28;20037;-61
2022/08/28 09:25:47;;;;;;;6.88;2.30;;;;;;;;;;4992766;28;20387;-60
2022/08/28 09:28:26;;;;;;;10.63;2.35;;;;;;;;;;4993265;28;20026;-61
2022/08/28 09:31:14;;;;;;;5.38;2.28;;;;;;;;;;4989659;28;20048;-62
2022/08/28 09:33:50;;;;;;;10.32;2.30;;;;;;;;;;4991193;28;20230;-60
2022/08/28 09:36:52;;;;;;;6.03;2.10;;;;;;;;;;4992231;28;20030;-60
2022/08/28 09:39:24;;;;;;;6.50;2.00;;;;;;;;;;4933103;29;20540;-61
2022/08/28 09:45:19;;;;;;;7.47;2.05;;;;;;;;;;4990571;28;20110;-61
2022/08/28 09:47:53;;;;;;;7.50;1.90;;;;;;;;;;4991195;28;20034;-61
2022/08/28 09:50:41;;;;;;;4.82;2.10;;;;;;;;;;4990841;28;20030;-61
2022/08/28 09:53:10;;;;;;;7.20;2.15;;;;;;;;;;4992102;28;20039;-61
2022/08/28 09:55:57;;;;;;;5.00;2.15;;;;;;;;;;4976745;28;20034;-62
2022/08/28 09:58:32;;;;;;;6.32;2.00;;;;;;;;;;4991457;28;20053;-61
2022/08/28 10:01:06;;;;;;;5.63;1.85;;;;;;;;;;4990627;28;20041;-61
2022/08/28 10:03:50;;;;;;;6.40;2.00;;;;;;;;;;4992567;28;20041;-61
2022/08/28 10:06:28;;;;;;;6.32;2.10;;;;;;;;;;4991024;28;20038;-61
2022/08/28 10:09:04;;;;;;;6.38;2.00;;;;;;;;;;4974899;28;20124;-60
2022/08/28 10:11:44;;;;;;;6.60;2.35;;;;;;;;;;4992661;28;20037;-62
2022/08/28 10:14:18;;;;;;;8.00;2.00;;;;;;;;;;4992105;28;20038;-62
2022/08/28 10:16:55;;;;;;;4.70;1.90;;;;;;;;;;4990991;28;20042;-60
2022/08/28 10:19:36;;;;;;;5.93;2.28;;;;;;;;;;4989907;28;20128;-61
2022/08/28 10:22:27;;;;;;;10.70;6.80;;;;;;;;;;4992096;28;20045;-61
2022/08/28 10:25:16;;;;;;;6.22;2.50;;;;;;;;;;4990500;28;20122;-61
2022/08/28 10:27:55;;;;;;;5.30;2.03;;;;;;;;;;4990751;28;20038;-61
2022/08/28 10:30:23;;;;;;;6.63;1.98;;;;;;;;;;4990856;28;20031;-61
2022/08/28 10:32:58;;;;;;;7.28;1.92;;;;;;;;;;4989913;28;20038;-61
2022/08/28 10:35:32;;;;;;;5.22;1.90;;;;;;;;;;4990311;28;20122;-61
2022/08/28 10:38:18;;;;;;;6.03;1.80;;;;;;;;;;4989631;28;20145;-61
2022/08/28 10:41:09;;;;;;;6.13;2.20;;;;;;;;;;4990988;28;20042;-61
2022/08/28 10:43:45;;;;;;;7.28;3.50;;;;;;;;;;4991869;28;20054;-61
2022/08/28 10:46:15;;;;;;;4.80;2.00;;;;;;;;;;4991636;28;20046;-61
2022/08/28 10:48:47;;;;;;;4.68;1.90;;;;;;;;;;4991140;28;20106;-61
2022/08/28 10:51:22;;;;;;;4.45;2.00;;;;;;;;;;4991495;28;20042;-61
2022/08/28 10:53:58;;;;;;;4.28;2.00;;;;;;;;;;4986802;28;20058;-61
2022/08/28 10:56:32;;;;;;;7.45;3.15;;;;;;;;;;4983338;28;20030;-60
2022/08/28 10:58:58;;;;;;;5.32;1.90;;;;;;;;;;4989433;28;20656;-61
2022/08/28 11:01:34;;;;;;;6.10;1.95;;;;;;;;;;4990917;28;20112;-61
2022/08/28 11:04:02;;;;;;;4.70;1.90;;;;;;;;;;4990438;28;20836;-61
2022/08/28 11:06:46;;;;;;;4.97;1.80;;;;;;;;;;4991300;28;20026;-61
2022/08/28 11:09:53;;;;;;;3.72;1.98;;;;;;;;;;4991098;28;20185;-62
2022/08/28 11:12:18;;;;;;;4.82;1.98;;;;;;;;;;4989520;28;20039;-62
2022/08/28 11:14:50;;;;;;;5.20;2.00;;;;;;;;;;4991569;28;20173;-62
2022/08/28 11:17:27;;;;;;;7.00;2.10;;;;;;;;;;4990524;28;20076;-62
2022/08/28 11:20:01;;;;;;;6.70;1.80;;;;;;;;;;4990652;28;20038;-62
2022/08/28 11:22:37;;;;;;;5.07;1.90;;;;;;;;;;4989857;28;20084;-62
2022/08/28 11:25:49;;;;;;;5.07;1.92;;;;;;;;;;4977396;28;20084;-61
2022/08/28 11:28:23;;;;;;;5.13;2.03;;;;;;;;;;4950072;29;20463;-61
2022/08/28 11:30:57;;;;;;;4.90;1.90;;;;;;;;;;4948648;28;20054;-60
2022/08/28 11:33:46;;;;;;;6.65;2.13;;;;;;;;;;4953654;29;20449;-60
2022/08/28 11:36:18;;;;;;;7.05;2.08;;;;;;;;;;4953545;29;20039;-62
2022/08/28 11:38:43;;;;;;;5.03;1.70;;;;;;;;;;4952611;29;20045;-62
2022/08/28 11:41:27;;;;;;;3.70;1.80;;;;;;;;;;4953425;29;20047;-61
2022/08/28 11:44:08;;;;;;;4.50;2.00;;;;;;;;;;4953626;29;20039;-61
2022/08/28 11:46:36;;;;;;;5.20;2.00;;;;;;;;;;4952675;29;20501;-61
2022/08/28 11:49:27;;;;;;;5.75;2.10;;;;;;;;;;4953459;29;20516;-61
2022/08/28 11:52:14;;;;;;;6.53;1.90;;;;;;;;;;4952104;29;20055;-62
2022/08/28 11:55:03;;;;;;;4.82;1.98;;;;;;;;;;4940213;29;20035;-62
2022/08/28 11:58:26;;;;;;;7.57;2.00;;;;;;;;;;4953191;29;20067;-62
2022/08/28 12:01:07;;;;;;;4.22;1.88;;;;;;;;;;4933344;29;20269;-61
2022/08/28 12:03:42;;;;;;;5.18;1.80;;;;;;;;;;4993971;28;20097;-62
2022/08/28 12:06:09;;;;;;;5.43;2.03;;;;;;;;;;4993640;28;20093;-61
2022/08/28 12:08:43;;;;;;;7.30;2.03;;;;;;;;;;4995041;28;20041;-62
2022/08/28 12:11:30;;;;;;;4.43;1.90;;;;;;;;;;4995036;28;20058;-60
2022/08/28 12:13:56;;;;;;;4.93;1.70;;;;;;;;;;4975209;28;20038;-62
2022/08/28 12:16:22;;;;;;;3.72;1.63;;;;;;;;;;4988958;28;20034;-61
2022/08/28 12:18:47;;;;;;;4.28;1.75;;;;;;;;;;4992328;28;20060;-61
2022/08/28 12:21:17;;;;;;;6.15;1.83;;;;;;;;;;4994765;28;20431;-61
2022/08/28 12:24:20;;;;;;;4.45;1.80;;;;;;;;;;4992563;28;20470;-62
2022/08/28 12:26:52;;;;;;;4.90;1.90;;;;;;;;;;4992883;28;20117;-61
2022/08/28 12:29:48;;;;;;;4.90;2.00;;;;;;;;;;4974887;28;20031;-62
2022/08/28 12:32:25;;;;;;;4.50;1.98;;;;;;;;;;4979483;28;20034;-60
2022/08/28 12:34:54;;;;;;;5.30;1.90;;;;;;;;;;5005652;28;20113;-61
2022/08/28 12:37:37;;;;;;;4.47;1.92;;;;;;;;;;4993574;28;20035;-61
2022/08/28 12:40:17;;;;;;;4.13;1.80;;;;;;;;;;4992717;28;20714;-60
2022/08/28 12:42:56;;;;;;;6.32;1.65;;;;;;;;;;4990156;28;20046;-62
2022/08/28 12:45:33;;;;;;;3.03;1.70;;;;;;;;;;4994184;28;20400;-61
2022/08/28 12:48:03;;;;;;;4.47;1.63;;;;;;;;;;4991542;28;20030;-60
2022/08/28 12:50:37;;;;;;;5.88;2.10;;;;;;;;;;4993605;28;20070;-61
2022/08/28 12:53:12;;;;;;;5.65;1.70;;;;;;;;;;4992897;28;20045;-62
2022/08/28 12:55:39;;;;;;;4.57;1.70;;;;;;;;;;4989506;28;20065;-61
2022/08/28 12:58:27;;;;;;;5.65;1.60;;;;;;;;;;4991931;28;20133;-63
2022/08/28 13:00:59;;;;;;;5.30;2.10;;;;;;;;;;4991900;28;20042;-60
2022/08/28 13:03:24;;;;;;;4.28;1.88;;;;;;;;;;4992974;28;20034;-61
2022/08/28 13:06:02;;;;;;;5.45;1.80;;;;;;;;;;4992115;28;20118;-61
2022/08/28 13:08:28;;;;;;;4.43;1.65;;;;;;;;;;4992774;28;20041;-61
2022/08/28 13:10:54;;;;;;;5.72;1.60;;;;;;;;;;4992131;28;20105;-61
2022/08/28 13:13:42;;;;;;;5.05;1.58;;;;;;;;;;4993706;28;20109;-61
2022/08/28 13:16:09;;;;;;;5.30;1.77;;;;;;;;;;4985530;28;20069;-61
2022/08/28 13:18:50;;;;;;;3.78;1.45;;;;;;;;;;4993895;28;20030;-61
2022/08/28 13:21:16;;;;;;;4.30;1.85;;;;;;;;;;4993353;28;20161;-61
2022/08/28 13:23:42;;;;;;;4.65;1.70;;;;;;;;;;4991792;28;20074;-62
2022/08/28 13:26:09;;;;;;;4.10;1.70;;;;;;;;;;4991317;28;20117;-61
2022/08/28 13:28:41;;;;;;;2.60;1.48;;;;;;;;;;4989994;28;20101;-63
2022/08/28 13:31:22;;;;;;;6.80;1.77;;;;;;;;;;4984837;28;20030;-62
2022/08/28 13:34:06;;;;;;;8.15;1.77;;;;;;;;;;4990742;28;20411;-63
2022/08/28 13:36:40;;;;;;;3.92;1.52;;;;;;;;;;4991302;28;20061;-62
2022/08/28 13:39:05;;;;;;;3.92;1.70;;;;;;;;;;4990957;28;20041;-61
2022/08/28 13:41:31;;;;;;;6.35;1.80;;;;;;;;;;4992417;28;20035;-61
2022/08/28 13:43:56;;;;;;;4.35;1.67;;;;;;;;;;4991275;28;20481;-62
2022/08/28 13:46:22;;;;;;;6.07;1.70;;;;;;;;;;4993155;28;20081;-62
2022/08/28 13:48:47;;;;;;;3.13;1.40;;;;;;;;;;4992618;28;20053;-63
2022/08/28 13:51:13;;;;;;;3.58;1.50;;;;;;;;;;4991847;28;20466;-62
2022/08/28 13:53:38;;;;;;;5.60;1.52;;;;;;;;;;4989791;28;20031;-61
2022/08/28 13:56:04;;;;;;;6.13;1.80;;;;;;;;;;4987500;28;20054;-62
2022/08/28 13:58:30;;;;;;;4.72;1.52;;;;;;;;;;4992360;28;20133;-62
2022/08/28 14:00:55;;;;;;;3.33;1.60;;;;;;;;;;4989749;28;20042;-62
2022/08/28 14:03:40;;;;;;;3.72;1.48;;;;;;;;;;4992103;28;20034;-62
2022/08/28 14:06:18;;;;;;;3.15;1.65;;;;;;;;;;4989557;28;20049;-62
2022/08/28 14:09:11;;;;;;;2.83;1.50;;;;;;;;;;4991242;28;20045;-61
2022/08/28 14:11:37;;;;;;;5.80;1.80;;;;;;;;;;4991735;28;20042;-61
2022/08/28 14:14:02;;;;;;;3.50;1.80;;;;;;;;;;4990521;28;20535;-61
2022/08/28 14:16:28;;;;;;;4.38;1.60;;;;;;;;;;4991640;28;20395;-61
2022/08/28 14:18:53;;;;;;;6.20;1.42;;;;;;;;;;4990314;28;20069;-61
2022/08/28 14:21:20;;;;;;;5.53;1.52;;;;;;;;;;4990990;28;20096;-62
2022/08/28 14:23:45;;;;;;;3.55;1.70;;;;;;;;;;4992543;28;20435;-62
2022/08/28 14:26:11;;;;;;;5.05;1.85;;;;;;;;;;4990222;28;20053;-61
2022/08/28 14:28:36;;;;;;;6.13;1.70;;;;;;;;;;4992363;28;20042;-61
2022/08/28 14:31:12;;;;;;;2.60;1.33;;;;;;;;;;4989494;28;20037;-61
2022/08/28 14:33:38;;;;;;;3.45;1.70;;;;;;;;;;4991335;28;20034;-61
2022/08/28 14:36:04;;;;;;;4.75;1.80;;;;;;;;;;4989538;28;20184;-61
2022/08/28 14:38:32;;;;;;;3.08;1.50;;;;;;;;;;4989913;28;20089;-61
2022/08/28 14:40:58;;;;;;;3.65;1.52;;;;;;;;;;4990942;28;20070;-62
2022/08/28 14:43:23;;;;;;;5.22;1.83;;;;;;;;;;4990658;28;20120;-63
2022/08/28 14:45:49;;;;;;;3.33;1.65;;;;;;;;;;4990766;28;20030;-63
2022/08/28 14:48:17;;;;;;;4.50;1.65;;;;;;;;;;4991543;28;20049;-62
2022/08/28 14:50:44;;;;;;;3.67;1.70;;;;;;;;;;4990866;28;20031;-62
2022/08/28 14:53:12;;;;;;;3.75;1.60;;;;;;;;;;4989585;28;20038;-61
2022/08/28 14:55:43;;;;;;;4.20;1.88;;;;;;;;;;4990621;28;20022;-62
2022/08/28 14:58:09;;;;;;;2.63;1.40;;;;;;;;;;4991288;28;20122;-62
2022/08/28 15:00:40;;;;;;;4.25;1.60;;;;;;;;;;4990923;28;20034;-60
2022/08/28 15:03:05;;;;;;;3.63;1.60;;;;;;;;;;4991437;28;20030;-62
2022/08/28 15:05:32;;;;;;;5.53;1.58;;;;;;;;;;4990879;28;20053;-62
2022/08/28 15:07:58;;;;;;;3.42;1.60;;;;;;;;;;4994977;28;20031;-60